.
WxDataArchive / Data Records for 2009-08-15
2009-08-14 August 2009 2009-08-16

Data Records for Saturday, 15 August 2009

Time	Temp	Chill	HIndex	Humid	Dewpt	 Wind 	HiWind	WindDir	Rain 	Barom 
-----	----	-----	------	-----	-----	------	------	-------	-----	----- 
00:00	67.4	67.4	67.4	84	62.4	0	0	---	0.00	30.092 
00:05	67.3	67.3	67.3	84	62.3	0	0	---	0.00	30.092 
00:10	67.1	67.1	67.1	85	62.4	0	0	---	0.00	30.092 
00:15	67.1	67.1	67.1	85	62.4	0	0	---	0.00	30.100 
00:20	66.9	66.9	66.9	85	62.2	0	0	---	0.00	30.100 
00:25	66.9	66.9	66.9	85	62.2	0	0	---	0.00	30.100 
00:30	66.8	66.8	66.8	86	62.5	0	0	---	0.00	30.104 
00:35	66.6	66.6	66.6	86	62.3	0	0	---	0.00	30.104 
00:40	66.4	66.4	66.4	86	62.1	0	0	---	0.00	30.104 
00:45	66.4	66.4	66.4	86	62.1	0	0	---	0.00	30.102 
00:50	66.3	66.3	66.3	87	62.3	0	0	---	0.00	30.102 
00:55	66.1	66.1	66.1	88	62.4	0	0	---	0.00	30.102 
01:00	66.0	66.0	66.0	88	62.3	0	0	---	0.00	30.099 
01:05	65.8	65.8	65.8	88	62.1	0	0	---	0.00	30.099 
01:10	65.8	65.8	65.8	88	62.1	0	0	---	0.00	30.099 
01:15	65.6	65.6	65.6	88	61.9	0	0	---	0.00	30.096 
01:20	65.5	65.5	65.5	89	62.2	0	0	---	0.00	30.096 
01:25	65.3	65.3	65.3	89	62.0	0	0	---	0.00	30.096 
01:30	65.2	65.2	65.2	89	61.9	0	0	---	0.00	30.097 
01:35	65.2	65.2	65.2	89	61.9	0	0	---	0.00	30.097 
01:40	65.0	65.0	65.0	90	62.0	0	0	---	0.00	30.097 
01:45	64.8	64.8	64.8	90	61.8	0	0	---	0.00	30.096 
01:50	64.8	64.8	64.8	90	61.8	0	0	---	0.00	30.096 
01:55	64.8	64.8	64.8	91	62.1	0	0	---	0.00	30.096 
02:00	64.7	64.7	64.7	91	62.0	0	0	---	0.00	30.095 
02:05	64.5	64.5	64.5	91	61.8	0	0	---	0.00	30.095 
02:10	64.3	64.3	64.3	91	61.6	0	0	---	0.00	30.095 
02:15	64.2	64.2	64.2	91	61.5	0	0	---	0.00	30.097 
02:20	64.2	64.2	64.2	92	61.8	0	0	---	0.00	30.097 
02:25	64.0	64.0	64.0	92	61.6	0	0	---	0.00	30.097 
02:30	63.9	63.9	63.9	92	61.5	0	0	---	0.00	30.101 
02:35	63.7	63.7	63.7	92	61.3	0	0	---	0.00	30.101 
02:40	63.5	63.5	63.5	92	61.1	0	0	---	0.00	30.101 
02:45	63.5	63.5	63.5	92	61.1	0	0	---	0.00	30.097 
02:50	63.4	63.4	63.4	92	61.0	0	0	---	0.00	30.097 
02:55	63.2	63.2	63.2	92	60.8	0	0	---	0.00	30.097 
03:00	63.2	63.2	63.2	92	60.8	0	0	---	0.00	30.092 
03:05	63.1	63.1	63.1	92	60.7	0	0	---	0.00	30.092 
03:10	62.9	62.9	62.9	92	60.5	0	0	---	0.00	30.092 
03:15	62.7	62.7	62.7	93	60.6	0	0	---	0.00	30.089 
03:20	62.7	62.7	62.7	93	60.6	0	0	---	0.00	30.089 
03:25	62.7	62.7	62.7	93	60.6	0	0	---	0.00	30.089 
03:30	62.6	62.6	62.6	93	60.5	0	0	---	0.00	30.091 
03:35	62.6	62.6	62.6	93	60.5	0	0	---	0.00	30.091 
03:40	62.4	62.4	62.4	93	60.3	0	0	---	0.00	30.091 
03:45	62.4	62.4	62.4	93	60.3	0	0	---	0.00	30.092 
03:50	62.3	62.3	62.3	93	60.2	0	0	---	0.00	30.092 
03:55	62.1	62.1	62.1	94	60.3	0	0	---	0.00	30.092 
04:00	62.1	62.1	62.1	94	60.3	0	0	---	0.00	30.092 
04:05	62.0	62.0	62.0	94	60.2	0	0	---	0.00	30.092 
04:10	61.8	61.8	61.8	94	60.1	0	0	---	0.00	30.092 
04:15	61.8	61.8	61.8	94	60.1	0	0	---	0.00	30.094 
04:20	61.8	61.8	61.8	94	60.1	0	0	---	0.00	30.094 
04:25	61.8	61.8	61.8	94	60.1	0	0	---	0.00	30.094 
04:30	61.6	61.6	61.6	94	59.9	0	0	---	0.00	30.101 
04:35	61.5	61.5	61.5	94	59.8	0	0	---	0.00	30.101 
04:40	61.5	61.5	61.5	94	59.8	0	0	---	0.00	30.101 
04:45	61.5	61.5	61.5	94	59.8	0	0	---	0.00	30.102 
04:50	61.3	61.3	61.3	94	59.6	0	0	---	0.00	30.102 
04:55	61.5	61.5	61.5	94	59.8	0	0	---	0.00	30.102 
05:00	61.5	61.5	61.5	95	60.1	0	0	---	0.00	30.104 
05:05	61.3	61.3	61.3	94	59.6	0	0	---	0.00	30.104 
05:10	61.3	61.3	61.3	95	59.9	0	0	---	0.00	30.104 
05:15	61.3	61.3	61.3	95	59.9	0	0	---	0.00	30.102 
05:20	61.2	61.2	61.2	95	59.8	0	0	---	0.00	30.102 
05:25	61.2	61.2	61.2	95	59.8	0	0	---	0.00	30.102 
05:30	61.2	61.2	61.2	95	59.8	0	0	---	0.00	30.099 
05:35	61.2	61.2	61.2	95	59.8	0	0	---	0.00	30.099 
05:40	61.2	61.2	61.2	95	59.8	0	0	---	0.00	30.099 
05:45	61.0	61.0	61.0	95	59.6	0	0	---	0.00	30.100 
05:50	61.0	61.0	61.0	95	59.6	0	0	---	0.00	30.100 
05:55	61.0	61.0	61.0	95	59.6	0	0	---	0.00	30.100 
06:00	60.9	60.9	60.9	95	59.5	0	0	---	0.00	30.105 
06:05	60.7	60.7	60.7	95	59.3	0	0	---	0.00	30.105 
06:10	60.5	60.5	60.5	95	59.1	0	0	---	0.00	30.105 
06:15	60.5	60.5	60.5	95	59.1	0	0	---	0.00	30.112 
06:20	60.4	60.4	60.4	95	59.0	0	0	---	0.00	30.112 
06:25	60.4	60.4	60.4	95	59.0	0	0	---	0.00	30.112 
06:30	60.4	60.4	60.4	95	59.0	0	0	---	0.00	30.118 
06:35	60.4	60.4	60.4	95	59.0	0	0	---	0.00	30.118 
06:40	60.4	60.4	60.4	95	59.0	0	0	---	0.00	30.118 
06:45	60.2	60.2	60.2	95	58.8	0	0	---	0.00	30.127 
06:50	60.4	60.4	60.4	95	59.0	0	0	---	0.00	30.127 
06:55	60.4	60.4	60.4	95	59.0	0	0	---	0.00	30.127 
07:00	60.4	60.4	60.4	95	59.0	0	0	---	0.00	30.129 
07:05	60.5	60.5	60.5	95	59.1	0	0	---	0.00	30.129 
07:10	60.5	60.5	60.5	96	59.4	0	0	---	0.00	30.129 
07:15	60.5	60.5	60.5	95	59.1	0	0	---	0.00	30.136 
07:20	60.5	60.5	60.5	96	59.4	0	0	---	0.00	30.136 
07:25	60.7	60.7	60.7	96	59.6	0	0	---	0.00	30.136 
07:30	60.7	60.7	60.7	96	59.6	0	0	---	0.00	30.137 
07:35	60.9	60.9	60.9	96	59.7	0	0	---	0.00	30.137 
07:40	61.0	61.0	61.0	96	59.8	0	0	---	0.00	30.137 
07:45	61.3	61.3	61.3	96	60.1	0	0	---	0.00	30.140 
07:50	62.0	62.0	62.0	96	60.8	0	0	---	0.00	30.140 
07:55	62.4	62.4	62.4	96	61.2	0	0	---	0.00	30.140 
08:00	62.7	62.7	62.7	96	61.5	0	0	---	0.00	30.141 
08:05	63.2	63.2	63.2	96	62.0	0	0	---	0.00	30.141 
08:10	63.5	63.5	63.5	96	62.3	0	0	---	0.00	30.141 
08:15	64.2	64.2	64.2	96	63.0	0	0	---	0.00	30.146 
08:20	64.5	64.5	64.5	96	63.3	0	1	135	0.00	30.146 
08:25	65.0	65.0	65.0	96	63.8	0	0	---	0.00	30.146 
08:30	65.8	65.8	65.8	96	64.6	0	0	---	0.00	30.141 
08:35	66.4	66.4	66.4	95	64.9	0	0	---	0.00	30.141 
08:40	67.3	67.3	67.3	94	65.5	0	0	---	0.00	30.141 
08:45	68.3	68.3	68.3	93	66.2	0	0	---	0.00	30.149 
08:50	69.3	69.3	69.3	89	65.9	0	0	---	0.00	30.149 
08:55	69.9	69.9	69.9	87	65.8	0	0	---	0.00	30.149 
09:00	70.4	70.4	70.4	84	65.3	0	0	---	0.00	30.150 
09:05	70.6	70.6	70.6	81	64.5	0	1	135	0.00	30.150 
09:10	70.9	70.9	70.9	79	64.1	0	1	135	0.00	30.150 
09:15	71.8	71.8	71.8	77	64.2	0	1	135	0.00	30.156 
09:20	72.3	72.3	72.3	73	63.1	0	1	135	0.00	30.156 
09:25	73.2	73.2	73.2	73	64.0	0	1	135	0.00	30.156 
09:30	73.9	73.9	73.9	71	63.9	0	1	135	0.00	30.153 
09:35	74.6	74.6	74.6	68	63.3	0	1	135	0.00	30.153 
09:40	75.3	75.3	77.0	69	64.4	0	1	135	0.00	30.153 
09:45	76.3	76.3	78.1	65	63.6	0	1	135	0.00	30.152 
09:50	77.0	77.0	78.8	63	63.4	0	1	135	0.00	30.152 
09:55	77.7	77.7	79.4	62	63.6	0	1	135	0.00	30.152 
10:00	78.5	78.5	80.1	59	63.0	1	2	135	0.00	30.150 
10:05	78.8	78.8	80.3	58	62.8	0	2	135	0.00	30.150 
10:10	78.6	78.6	80.1	57	62.1	0	2	135	0.00	30.150 
10:15	78.5	78.5	80.0	58	62.5	0	2	135	0.00	30.153 
10:20	78.5	78.5	80.0	58	62.5	1	2	135	0.00	30.153 
10:25	79.0	79.0	80.5	58	62.9	0	1	135	0.00	30.153 
10:30	79.9	79.9	81.5	58	63.8	0	2	158	0.00	30.154 
10:35	80.7	80.7	82.0	55	63.0	0	1	158	0.00	30.154 
10:40	81.4	81.4	82.7	54	63.1	0	2	112	0.00	30.154 
10:45	81.6	81.6	82.6	52	62.2	1	3	90	0.00	30.153 
10:50	81.6	81.6	82.5	51	61.7	0	2	90	0.00	30.153 
10:55	81.2	81.2	82.3	53	62.4	1	3	90	0.00	30.153 
11:00	81.4	81.4	82.3	51	61.5	0	2	90	0.00	30.152 
11:05	81.6	81.6	82.3	50	61.1	1	2	90	0.00	30.152 
11:10	82.0	82.0	82.9	51	62.1	0	1	90	0.00	30.152 
11:15	82.2	82.2	83.0	50	61.7	1	3	90	0.00	30.153 
11:20	82.4	82.4	83.0	49	61.3	0	2	90	0.00	30.153 
11:25	83.0	83.0	83.4	47	60.7	0	2	90	0.00	30.153 
11:30	83.0	83.0	83.4	47	60.7	1	3	90	0.00	30.153 
11:35	83.4	83.4	84.0	48	61.6	1	3	90	0.00	30.153 
11:40	83.0	83.0	83.4	47	60.7	1	3	90	0.00	30.153 
11:45	83.2	83.2	83.4	46	60.2	0	2	158	0.00	30.150 
11:50	83.8	83.8	84.1	46	60.8	1	3	158	0.00	30.150 
11:55	84.1	84.1	84.1	44	59.8	1	3	248	0.00	30.150 
12:00	84.1	84.1	84.1	44	59.8	1	3	270	0.00	30.146 
12:05	84.3	84.3	84.5	45	60.6	0	2	270	0.00	30.146 
12:10	84.0	84.0	84.0	44	59.7	1	3	270	0.00	30.146 
12:15	83.0	83.0	83.2	46	60.1	0	2	270	0.00	30.140 
12:20	82.8	82.8	83.7	50	62.2	0	3	270	0.00	30.140 
12:25	83.0	83.0	83.4	47	60.7	1	3	270	0.00	30.140 
12:30	83.4	83.4	83.7	46	60.4	2	5	112	0.00	30.137 
12:35	83.8	83.8	84.1	46	60.8	2	4	90	0.00	30.137 
12:40	84.1	84.1	84.4	46	61.1	1	4	90	0.00	30.137 
12:45	84.1	84.1	84.3	45	60.4	1	6	112	0.00	30.133 
12:50	84.7	84.7	85.2	46	61.6	1	5	90	0.00	30.133 
12:55	85.3	85.3	85.5	44	60.9	1	3	90	0.00	30.133 
13:00	86.1	86.1	86.2	43	61.0	1	4	90	0.00	30.124 
13:05	86.1	86.1	85.8	41	59.6	1	4	90	0.00	30.124 
13:10	86.1	86.1	86.2	43	61.0	1	3	112	0.00	30.124 
13:15	86.1	86.1	86.2	43	61.0	1	4	90	0.00	30.120 
13:20	86.3	86.3	86.5	43	61.1	1	3	90	0.00	30.120 
13:25	85.9	85.9	86.2	44	61.4	2	4	90	0.00	30.120 
13:30	85.9	85.9	85.5	41	59.4	1	4	68	0.00	30.121 
13:35	86.1	86.1	86.0	42	60.3	1	4	68	0.00	30.121 
13:40	86.3	86.3	86.5	43	61.1	1	3	270	0.00	30.121 
13:45	86.3	86.3	86.5	43	61.1	2	5	90	0.00	30.115 
13:50	86.3	86.3	86.7	44	61.8	1	5	90	0.00	30.115 
13:55	86.5	86.5	87.0	44	62.0	1	3	90	0.00	30.115 
14:00	87.0	87.0	87.4	43	61.8	1	5	112	0.00	30.109 
14:05	86.7	86.7	87.0	43	61.5	1	3	248	0.00	30.109 
14:10	86.7	86.7	86.7	42	60.8	1	4	90	0.00	30.109 
14:15	86.7	86.7	87.0	43	61.5	1	5	90	0.00	30.105 
14:20	86.7	86.7	86.7	42	60.8	1	3	292	0.00	30.105 
14:25	86.5	86.5	86.3	41	60.0	1	4	315	0.00	30.105 
14:30	87.0	87.0	87.6	44	62.4	1	4	112	0.00	30.103 
14:35	87.2	87.2	87.1	41	60.6	0	3	315	0.00	30.103 
14:40	87.4	87.4	87.6	42	61.5	2	4	90	0.00	30.103 
14:45	87.4	87.4	88.2	44	62.8	1	6	90	0.00	30.101 
14:50	87.6	87.6	88.5	44	63.0	1	3	90	0.00	30.101 
14:55	87.8	87.8	87.6	40	60.4	2	5	112	0.00	30.101 
15:00	87.2	87.2	87.1	41	60.6	2	4	90	0.00	30.094 
15:05	87.0	87.0	86.6	40	59.7	1	4	158	0.00	30.094 
15:10	87.0	87.0	87.1	42	61.1	1	4	112	0.00	30.094 
15:15	87.4	87.4	87.4	41	60.8	1	5	90	0.00	30.092 
15:20	87.4	87.4	87.4	41	60.8	2	4	90	0.00	30.092 
15:25	87.4	87.4	87.4	41	60.8	1	4	90	0.00	30.092 
15:30	87.0	87.0	87.4	43	61.8	2	6	90	0.00	30.088 
15:35	87.0	87.0	87.1	42	61.1	3	6	112	0.00	30.088 
15:40	87.0	87.0	86.6	40	59.7	1	3	158	0.00	30.088 
15:45	87.4	87.4	86.7	38	58.6	2	5	112	0.00	30.085 
15:50	87.4	87.4	87.1	40	60.1	1	4	112	0.00	30.085 
15:55	87.4	87.4	87.4	41	60.8	1	3	112	0.00	30.085 
16:00	87.4	87.4	87.1	40	60.1	2	5	68	0.00	30.076 
16:05	87.0	87.0	86.9	41	60.4	2	6	112	0.00	30.076 
16:10	87.0	87.0	87.4	43	61.8	1	3	90	0.00	30.076 
16:15	87.2	87.2	87.1	41	60.6	1	5	90	0.00	30.075 
16:20	87.6	87.6	87.4	40	60.3	1	4	112	0.00	30.075 
16:25	88.0	88.0	87.9	40	60.6	1	4	112	0.00	30.075 
16:30	88.0	88.0	87.6	39	59.9	1	3	135	0.00	30.069 
16:35	88.2	88.2	87.9	39	60.1	2	4	90	0.00	30.069 
16:40	87.8	87.8	87.4	39	59.7	1	4	90	0.00	30.069 
16:45	87.8	87.8	87.6	40	60.4	1	4	90	0.00	30.072 
16:50	87.8	87.8	87.6	40	60.4	1	4	90	0.00	30.072 
16:55	87.8	87.8	87.6	40	60.4	1	6	90	0.00	30.072 
17:00	87.8	87.8	87.9	41	61.1	1	5	90	0.00	30.072 
17:05	87.6	87.6	87.1	39	59.5	1	3	315	0.00	30.072 
17:10	87.4	87.4	87.1	40	60.1	1	4	90	0.00	30.072 
17:15	87.4	87.4	87.1	40	60.1	1	4	90	0.00	30.073 
17:20	87.2	87.2	86.6	39	59.2	1	3	68	0.00	30.073 
17:25	87.0	87.0	86.4	39	59.0	1	4	292	0.00	30.073 
17:30	87.0	87.0	86.6	40	59.7	1	4	315	0.00	30.070 
17:35	87.2	87.2	86.4	38	58.5	0	2	270	0.00	30.070 
17:40	87.4	87.4	86.9	39	59.4	1	4	68	0.00	30.070 
17:45	87.2	87.2	86.4	38	58.5	0	2	68	0.00	30.067 
17:50	87.0	87.0	86.2	38	58.3	0	2	68	0.00	30.067 
17:55	87.0	87.0	86.4	39	59.0	0	1	68	0.00	30.067 
18:00	87.0	87.0	86.4	39	59.0	0	2	68	0.00	30.065 
18:05	87.0	87.0	86.4	39	59.0	1	4	90	0.00	30.065 
18:10	87.0	87.0	86.4	39	59.0	1	3	112	0.00	30.065 
18:15	86.7	86.7	86.0	39	58.7	2	4	90	0.00	30.065 
18:20	86.3	86.3	86.0	41	59.8	1	3	90	0.00	30.065 
18:25	85.9	85.9	85.3	40	58.7	1	4	90	0.00	30.065 
18:30	85.7	85.7	85.3	41	59.3	1	4	112	0.00	30.065 
18:35	85.3	85.3	85.0	42	59.6	1	3	135	0.00	30.065 
18:40	85.1	85.1	84.8	42	59.4	0	2	68	0.00	30.065 
18:45	84.9	84.9	84.6	42	59.2	0	2	68	0.00	30.070 
18:50	84.9	84.9	84.8	43	59.9	1	3	68	0.00	30.070 
18:55	84.7	84.7	84.6	43	59.7	0	1	68	0.00	30.070 
19:00	84.7	84.7	84.6	43	59.7	0	1	68	0.00	30.065 
19:05	84.5	84.5	84.3	43	59.5	0	1	68	0.00	30.065 
19:10	84.5	84.5	84.3	43	59.5	0	2	68	0.00	30.065 
19:15	84.3	84.3	84.3	44	60.0	0	2	68	0.00	30.064 
19:20	84.1	84.1	84.3	45	60.4	0	2	68	0.00	30.064 
19:25	84.1	84.1	84.3	45	60.4	0	1	68	0.00	30.064 
19:30	84.0	84.0	84.0	44	59.7	0	2	68	0.00	30.061 
19:35	83.8	83.8	83.9	45	60.2	0	2	90	0.00	30.061 
19:40	83.6	83.6	83.7	45	60.0	0	2	90	0.00	30.061 
19:45	83.4	83.4	83.7	46	60.4	0	2	90	0.00	30.061 
19:50	83.2	83.2	83.4	46	60.2	0	2	90	0.00	30.061 
19:55	83.0	83.0	83.4	47	60.7	0	2	90	0.00	30.061 
20:00	82.8	82.8	83.3	48	61.1	0	1	90	0.00	30.062 
20:05	82.4	82.4	83.0	49	61.3	0	1	90	0.00	30.062 
20:10	82.2	82.2	82.8	49	61.1	0	0	---	0.00	30.062 
20:15	81.8	81.8	82.6	50	61.3	0	0	---	0.00	30.059 
20:20	81.6	81.6	82.3	50	61.1	0	0	---	0.00	30.059 
20:25	81.2	81.2	82.1	51	61.3	0	0	---	0.00	30.059 
20:30	81.1	81.1	82.1	52	61.8	0	0	---	0.00	30.071 
20:35	80.7	80.7	81.7	52	61.4	0	0	---	0.00	30.071 
20:40	80.3	80.3	81.4	53	61.6	0	0	---	0.00	30.071 
20:45	79.9	79.9	81.1	54	61.7	0	0	---	0.00	30.071 
20:50	79.6	79.6	80.8	54	61.5	0	0	---	0.00	30.071 
20:55	79.2	79.2	80.5	55	61.6	0	0	---	0.00	30.071 
21:00	78.6	78.6	80.0	56	61.6	0	0	---	0.00	30.073 
21:05	78.3	78.3	79.9	58	62.3	0	0	---	0.00	30.073 
21:10	77.9	77.9	79.5	58	61.9	0	0	---	0.00	30.073 
21:15	77.6	77.6	79.3	59	62.1	0	0	---	0.00	30.074 
21:20	77.2	77.2	78.9	60	62.2	0	0	---	0.00	30.074 
21:25	76.8	76.8	78.6	61	62.3	0	0	---	0.00	30.074 
21:30	76.5	76.5	78.4	62	62.5	0	0	---	0.00	30.079 
21:35	76.3	76.3	78.2	63	62.8	0	0	---	0.00	30.079 
21:40	76.0	76.0	77.9	63	62.5	0	0	---	0.00	30.079 
21:45	75.8	75.8	77.7	64	62.7	0	0	---	0.00	30.085 
21:50	75.8	75.8	77.7	64	62.7	0	0	---	0.00	30.085 
21:55	75.6	75.6	77.6	64	62.5	0	0	---	0.00	30.085 
22:00	75.4	75.4	77.4	64	62.4	0	0	---	0.00	30.087 
22:05	75.4	75.4	77.4	64	62.4	0	0	---	0.00	30.087 
22:10	75.3	75.3	77.3	65	62.7	0	0	---	0.00	30.087 
22:15	75.1	75.1	77.1	65	62.5	0	0	---	0.00	30.087 
22:20	75.1	75.1	77.1	65	62.5	0	0	---	0.00	30.087 
22:25	75.1	75.1	77.1	65	62.5	0	0	---	0.00	30.087 
22:30	75.1	75.1	77.1	65	62.5	0	0	---	0.00	30.087 
22:35	75.1	75.1	77.1	66	62.9	0	0	---	0.00	30.087 
22:40	74.9	74.9	74.9	66	62.8	0	0	---	0.00	30.087 
22:45	74.7	74.7	74.7	67	63.0	0	0	---	0.00	30.089 
22:50	74.6	74.6	74.6	67	62.9	0	0	---	0.00	30.089 
22:55	74.4	74.4	74.4	68	63.1	0	0	---	0.00	30.089 
23:00	74.4	74.4	74.4	69	63.5	0	0	---	0.00	30.089 
23:05	74.2	74.2	74.2	69	63.4	0	0	---	0.00	30.089 
23:10	74.0	74.0	74.0	70	63.6	0	0	---	0.00	30.089 
23:15	73.9	73.9	73.9	70	63.5	0	0	---	0.00	30.087 
23:20	73.7	73.7	73.7	71	63.7	0	0	---	0.00	30.087 
23:25	73.5	73.5	73.5	72	63.9	0	0	---	0.00	30.087 
23:30	73.3	73.3	73.3	72	63.7	0	0	---	0.00	30.088 
23:35	73.3	73.3	73.3	73	64.1	0	1	90	0.00	30.088 
23:40	73.3	73.3	73.3	73	64.1	0	1	90	0.00	30.088 
23:45	73.3	73.3	73.3	73	64.1	0	1	90	0.00	30.087 
23:50	73.3	73.3	73.3	73	64.1	0	0	---	0.00	30.087 
23:55	73.2	73.2	73.2	74	64.4	0	0	---	0.00	30.087 

CoCoRaHS
IN-AL-39
A2 Web Hosting
Creative Commons License
GoDaddy
search engine by freefind advanced

loaded 2018-11-18 11:36:25 • last modified 2010-11-18 10:43:29
Privacy PolicyDisclaimer
• wx.awcolley.com is powered by PmWiki v.2002016 •
• all content (unless otherwise noted) © 2018 A W Colley